Time;durP1;ratioP1;P1;durP2;ratioP2;P2;SDS_P1;SDS_P2;PMS_P1;PMS_P2;Temp;Humidity;BMP_temperature;BMP_pressure;BME280_temperature;BME280_humidity;BME280_pressure;Samples;Min_cycle;Max_cycle;Signal;HPM_P1;HPM_P2
2022/07/29 00:00:07;;;;;;;4.68;1.88;;;15.10;99.90;;;;;;5071507;28;20045;-61
2022/07/29 00:02:33;;;;;;;6.70;1.98;;;15.00;99.90;;;;;;5071722;28;20493;-61
2022/07/29 00:04:59;;;;;;;3.65;1.83;;;15.10;99.90;;;;;;5072007;28;20079;-65
2022/07/29 00:07:25;;;;;;;3.05;1.52;;;15.10;99.90;;;;;;5071782;28;20078;-61
2022/07/29 00:09:51;;;;;;;3.33;1.65;;;15.10;99.90;;;;;;5071339;28;20493;-61
2022/07/29 00:12:17;;;;;;;6.38;1.90;;;15.10;99.90;;;;;;5070108;28;20128;-60
2022/07/29 00:14:42;;;;;;;5.72;1.67;;;15.10;99.90;;;;;;5071967;28;20124;-61
2022/07/29 00:17:08;;;;;;;3.38;1.70;;;15.10;99.90;;;;;;5071388;28;20048;-61
2022/07/29 00:19:34;;;;;;;4.25;1.88;;;15.10;99.90;;;;;;5071553;28;20045;-60
2022/07/29 00:22:00;;;;;;;3.63;1.70;;;15.10;99.90;;;;;;5070712;28;20041;-61
2022/07/29 00:24:26;;;;;;;3.92;1.60;;;15.10;99.90;;;;;;5071455;28;20040;-61
2022/07/29 00:26:52;;;;;;;4.13;1.70;;;15.10;99.90;;;;;;5071638;28;20567;-61
2022/07/29 00:29:18;;;;;;;4.55;1.60;;;15.10;99.90;;;;;;5071365;28;20497;-61
2022/07/29 00:31:44;;;;;;;4.25;1.90;;;15.10;99.90;;;;;;5070637;28;20048;-61
2022/07/29 00:35:43;;;;;;;4.75;1.90;;;15.10;99.90;;;;;;5070248;28;20047;-61
2022/07/29 00:36:56;;;;;;;5.18;1.63;;;15.10;99.90;;;;;;5071674;28;20101;-60
2022/07/29 00:39:21;;;;;;;4.82;1.60;;;15.10;99.90;;;;;;5069897;28;20056;-62
2022/07/29 00:41:48;;;;;;;4.75;1.58;;;15.10;99.90;;;;;;5071589;28;20049;-59
2022/07/29 00:44:14;;;;;;;5.25;1.80;;;15.10;99.90;;;;;;5071048;28;20055;-60
2022/07/29 00:46:40;;;;;;;4.82;2.00;;;15.10;99.90;;;;;;5070513;28;20041;-61
2022/07/29 00:49:07;;;;;;;4.95;1.90;;;15.20;99.90;;;;;;5071278;28;20041;-64
2022/07/29 00:51:35;;;;;;;3.85;1.70;;;15.20;99.90;;;;;;5073731;28;20044;-61
2022/07/29 00:54:02;;;;;;;4.50;1.80;;;15.20;99.90;;;;;;5075330;28;20106;-60
2022/07/29 00:56:30;;;;;;;3.90;1.75;;;15.20;99.90;;;;;;5075156;28;20075;-60
2022/07/29 00:58:57;;;;;;;4.68;1.92;;;15.20;99.90;;;;;;5075162;28;20478;-60
2022/07/29 01:01:23;;;;;;;4.93;1.75;;;15.20;99.90;;;;;;5074692;28;20052;-62
2022/07/29 01:03:49;;;;;;;2.90;1.70;;;15.20;99.90;;;;;;5074993;28;20045;-61
2022/07/29 01:06:16;;;;;;;6.40;1.95;;;15.20;99.90;;;;;;5074280;28;20129;-61
2022/07/29 01:08:43;;;;;;;5.38;2.10;;;15.20;99.90;;;;;;5074538;28;20044;-61
2022/07/29 01:11:09;;;;;;;4.40;1.92;;;15.20;99.90;;;;;;5074940;28;20402;-65
2022/07/29 01:13:36;;;;;;;3.72;1.73;;;15.20;99.90;;;;;;5074796;28;20140;-62
2022/07/29 01:16:10;;;;;;;3.10;1.65;;;15.20;99.90;;;;;;5074956;28;20053;-61
2022/07/29 01:18:41;;;;;;;2.55;1.70;;;15.20;99.90;;;;;;5074773;28;20079;-61
2022/07/29 01:21:07;;;;;;;5.50;1.92;;;15.20;99.90;;;;;;5074663;28;20486;-61
2022/07/29 01:24:11;;;;;;;3.55;1.58;;;15.20;99.90;;;;;;5074492;28;20091;-60
2022/07/29 01:26:58;;;;;;;5.72;1.73;;;15.20;99.90;;;;;;5074802;28;20067;-61
2022/07/29 01:29:32;;;;;;;3.65;1.67;;;15.20;99.90;;;;;;5058221;28;20520;-64
2022/07/29 01:32:24;;;;;;;6.30;1.80;;;15.20;99.90;;;;;;5074836;28;20098;-60
2022/07/29 01:34:54;;;;;;;4.47;2.03;;;15.20;99.90;;;;;;5074255;28;20508;-59
2022/07/29 01:37:24;;;;;;;3.08;1.80;;;15.20;99.90;;;;;;5074128;28;20040;-61
2022/07/29 01:39:53;;;;;;;3.83;1.80;;;15.20;99.90;;;;;;5074423;28;20139;-60
2022/07/29 01:42:34;;;;;;;2.83;1.80;;;15.30;99.90;;;;;;5074223;28;20410;-61
2022/07/29 01:45:15;;;;;;;3.22;1.80;;;15.20;99.90;;;;;;5074479;28;20102;-61
2022/07/29 01:47:54;;;;;;;3.58;1.88;;;15.20;99.90;;;;;;5073102;28;20049;-60
2022/07/29 01:50:23;;;;;;;5.63;2.17;;;15.20;99.90;;;;;;5073954;28;20060;-61
2022/07/29 01:53:01;;;;;;;4.63;1.98;;;15.20;99.90;;;;;;5073361;28;20049;-60
2022/07/29 01:55:33;;;;;;;3.13;1.80;;;15.20;99.90;;;;;;5073904;28;20379;-60
2022/07/29 01:58:02;;;;;;;8.18;1.95;;;15.20;99.90;;;;;;5056205;28;20091;-60
2022/07/29 02:00:31;;;;;;;4.32;1.90;;;15.20;99.90;;;;;;5073660;28;20139;-61
2022/07/29 02:03:03;;;;;;;4.82;1.80;;;15.20;99.90;;;;;;5072967;28;20498;-60
2022/07/29 02:05:32;;;;;;;3.28;1.90;;;15.20;99.90;;;;;;5055772;28;20490;-61
2022/07/29 02:08:00;;;;;;;2.90;1.73;;;15.20;99.90;;;;;;5074115;28;20101;-60
2022/07/29 02:10:29;;;;;;;5.50;1.95;;;15.20;99.90;;;;;;5073173;28;20056;-60
2022/07/29 02:12:58;;;;;;;3.60;1.60;;;15.20;99.90;;;;;;5073976;28;20048;-60
2022/07/29 02:15:26;;;;;;;3.55;1.88;;;15.20;99.90;;;;;;5073426;28;20048;-61
2022/07/29 02:18:07;;;;;;;3.50;2.00;;;15.20;99.90;;;;;;5072507;28;20079;-60
2022/07/29 02:20:34;;;;;;;4.35;2.03;;;15.20;99.90;;;;;;5072183;28;20040;-60
2022/07/29 02:23:02;;;;;;;3.88;1.85;;;15.20;99.90;;;;;;5073736;28;20048;-60
2022/07/29 02:25:28;;;;;;;5.25;2.40;;;15.20;99.90;;;;;;5073241;28;20052;-60
2022/07/29 02:27:55;;;;;;;3.85;1.90;;;15.20;99.90;;;;;;5073641;28;20044;-61
2022/07/29 02:30:23;;;;;;;3.90;2.00;;;15.20;99.90;;;;;;5072813;28;20060;-64
2022/07/29 02:32:51;;;;;;;4.65;2.20;;;15.20;99.90;;;;;;5073359;28;20044;-61
2022/07/29 02:35:18;;;;;;;5.88;2.00;;;15.20;99.90;;;;;;5072186;28;20049;-61
2022/07/29 02:38:49;;;;;;;4.05;1.98;;;15.20;99.90;;;;;;5073423;28;20132;-61
2022/07/29 02:40:35;;;;;;;4.63;2.15;;;15.20;99.90;;;;;;5071941;28;20139;-61
2022/07/29 02:43:04;;;;;;;3.78;1.85;;;15.20;99.90;;;;;;5072888;28;20043;-60
2022/07/29 02:45:30;;;;;;;3.63;2.00;;;15.20;99.90;;;;;;5088872;28;20079;-60
2022/07/29 02:47:57;;;;;;;4.03;2.13;;;15.20;99.90;;;;;;5073202;28;20434;-63
2022/07/29 02:50:36;;;;;;;5.90;2.22;;;15.20;99.90;;;;;;5072845;28;20105;-63
2022/07/29 02:53:12;;;;;;;3.38;1.60;;;15.20;99.90;;;;;;5072136;28;20060;-60
2022/07/29 02:55:48;;;;;;;5.07;2.00;;;15.10;99.90;;;;;;5072639;28;20127;-61
2022/07/29 02:58:21;;;;;;;5.47;2.25;;;15.20;99.90;;;;;;5073050;28;20458;-60
2022/07/29 03:00:48;;;;;;;4.80;1.80;;;15.10;99.90;;;;;;5072601;28;20052;-61
2022/07/29 03:03:17;;;;;;;5.72;1.92;;;15.10;99.90;;;;;;5072860;28;20109;-60
2022/07/29 03:05:42;;;;;;;5.40;1.80;;;15.10;99.90;;;;;;5072583;28;20128;-60
2022/07/29 03:08:10;;;;;;;3.40;1.80;;;15.10;99.90;;;;;;5073005;28;20131;-60
2022/07/29 03:10:38;;;;;;;3.17;1.70;;;15.10;99.90;;;;;;5070930;28;20051;-61
2022/07/29 03:13:05;;;;;;;4.70;2.00;;;15.10;99.90;;;;;;5071524;28;20044;-61
2022/07/29 03:15:32;;;;;;;4.68;2.10;;;15.00;99.90;;;;;;5072432;28;20048;-59
2022/07/29 03:17:58;;;;;;;5.15;1.98;;;15.00;99.90;;;;;;5071426;28;20080;-61
2022/07/29 03:20:24;;;;;;;14.30;2.83;;;15.00;99.90;;;;;;5072512;28;20460;-64
2022/07/29 03:22:50;;;;;;;6.25;2.25;;;15.00;99.90;;;;;;5072398;28;20051;-60
2022/07/29 03:25:18;;;;;;;5.65;2.05;;;14.90;99.90;;;;;;5072296;28;20048;-61
2022/07/29 03:27:44;;;;;;;4.47;2.03;;;15.00;99.90;;;;;;5072096;28;20040;-60
2022/07/29 03:30:11;;;;;;;6.03;2.05;;;14.90;99.90;;;;;;5072346;28;20094;-61
2022/07/29 03:32:38;;;;;;;3.97;2.00;;;14.90;99.90;;;;;;5070723;28;20436;-61
2022/07/29 03:35:04;;;;;;;6.25;1.92;;;14.90;99.90;;;;;;5070942;28;20055;-60
2022/07/29 03:37:30;;;;;;;3.28;1.75;;;14.90;99.90;;;;;;5071458;28;20049;-60
2022/07/29 03:39:58;;;;;;;5.82;2.20;;;14.90;99.90;;;;;;5072176;28;20045;-61
2022/07/29 03:42:33;;;;;;;5.57;2.20;;;14.90;99.90;;;;;;5071957;28;20339;-61
2022/07/29 03:45:02;;;;;;;4.55;1.90;;;14.90;99.90;;;;;;5072004;28;20032;-60
2022/07/29 03:47:29;;;;;;;4.78;1.98;;;14.90;99.90;;;;;;5087595;28;20059;-64
2022/07/29 03:50:00;;;;;;;5.22;2.20;;;14.90;99.90;;;;;;5072072;28;20055;-62
2022/07/29 03:52:26;;;;;;;5.22;2.15;;;14.90;99.90;;;;;;5071888;28;20131;-60
2022/07/29 03:54:52;;;;;;;5.50;2.10;;;14.80;99.90;;;;;;5071429;28;20186;-60
2022/07/29 03:57:23;;;;;;;4.15;1.88;;;14.90;99.90;;;;;;5071691;28;20048;-61
2022/07/29 03:59:51;;;;;;;6.07;2.10;;;14.90;99.90;;;;;;5071532;28;20059;-61
2022/07/29 04:02:16;;;;;;;4.03;2.03;;;14.90;99.90;;;;;;5070571;28;20052;-62
2022/07/29 04:04:42;;;;;;;4.97;2.38;;;14.80;99.90;;;;;;5087432;28;20048;-61
2022/07/29 04:07:12;;;;;;;3.65;1.90;;;14.80;99.90;;;;;;5071864;28;20501;-61
2022/07/29 04:09:38;;;;;;;4.30;1.77;;;14.90;99.90;;;;;;5070172;28;20052;-61
2022/07/29 04:12:04;;;;;;;5.55;2.10;;;14.80;99.90;;;;;;5071670;28;20052;-61
2022/07/29 04:14:31;;;;;;;4.70;2.10;;;14.80;99.90;;;;;;5071819;28;20211;-61
2022/07/29 04:16:57;;;;;;;5.05;2.30;;;14.80;99.90;;;;;;5070154;28;20044;-61
2022/07/29 04:19:23;;;;;;;6.10;2.10;;;14.90;99.90;;;;;;5072126;28;20054;-60
2022/07/29 04:21:48;;;;;;;3.30;1.88;;;14.90;99.90;;;;;;5071504;28;20714;-59
2022/07/29 04:24:14;;;;;;;5.45;2.03;;;14.90;99.90;;;;;;5070240;28;20040;-60
2022/07/29 04:26:40;;;;;;;5.68;2.05;;;14.90;99.90;;;;;;5075559;28;20048;-60
2022/07/29 04:29:05;;;;;;;5.15;2.03;;;14.90;99.90;;;;;;5060430;28;20154;-61
2022/07/29 04:31:31;;;;;;;6.05;2.13;;;14.90;99.90;;;;;;5077050;28;20048;-60
2022/07/29 04:33:57;;;;;;;4.22;1.88;;;14.90;99.90;;;;;;5077832;28;20067;-61
2022/07/29 04:36:23;;;;;;;5.70;2.10;;;14.90;99.90;;;;;;5077193;28;20138;-61
2022/07/29 04:38:48;;;;;;;3.90;2.15;;;14.90;99.90;;;;;;5076176;28;20079;-62
2022/07/29 04:41:14;;;;;;;7.10;2.38;;;14.90;99.90;;;;;;5043748;28;20382;-60
2022/07/29 04:43:39;;;;;;;6.85;2.30;;;15.00;99.90;;;;;;5077407;28;20080;-60
2022/07/29 04:46:06;;;;;;;6.80;2.08;;;15.00;99.90;;;;;;5076759;28;20123;-59
2022/07/29 04:48:32;;;;;;;4.30;2.20;;;15.00;99.90;;;;;;5076863;28;20443;-61
2022/07/29 04:50:58;;;;;;;4.88;1.70;;;15.00;99.90;;;;;;5076296;28;20044;-60
2022/07/29 04:53:24;;;;;;;5.03;2.13;;;15.00;99.90;;;;;;5076943;28;20114;-60
2022/07/29 04:55:50;;;;;;;6.60;1.95;;;15.00;99.90;;;;;;5077548;28;20087;-59
2022/07/29 04:58:16;;;;;;;5.63;2.35;;;15.00;99.90;;;;;;5077813;28;20080;-60
2022/07/29 05:00:42;;;;;;;4.93;1.83;;;15.00;99.90;;;;;;5077482;28;20465;-60
2022/07/29 05:03:07;;;;;;;5.18;1.92;;;15.10;99.90;;;;;;5076603;28;20037;-60
2022/07/29 05:05:33;;;;;;;8.07;2.33;;;15.10;99.90;;;;;;5076506;28;20120;-60
2022/07/29 05:07:59;;;;;;;3.72;2.08;;;15.10;99.90;;;;;;5076477;28;20033;-60
2022/07/29 05:10:25;;;;;;;8.15;1.88;;;15.10;99.90;;;;;;5078061;28;20056;-61
2022/07/29 05:12:51;;;;;;;4.25;2.10;;;15.10;99.90;;;;;;5076585;28;20056;-61
2022/07/29 05:15:17;;;;;;;4.68;2.00;;;15.10;99.90;;;;;;5077133;28;20424;-60
2022/07/29 05:17:43;;;;;;;9.05;2.20;;;15.20;99.90;;;;;;5059735;28;20048;-63
2022/07/29 05:20:09;;;;;;;4.38;2.10;;;15.20;99.90;;;;;;5077718;28;20415;-61
2022/07/29 05:22:35;;;;;;;6.22;2.00;;;15.20;99.90;;;;;;5077974;28;20036;-61
2022/07/29 05:25:02;;;;;;;3.85;1.90;;;15.30;99.90;;;;;;5077448;28;20457;-61
2022/07/29 05:27:28;;;;;;;5.50;2.00;;;15.30;99.90;;;;;;5076797;28;20064;-60
2022/07/29 05:29:53;;;;;;;3.45;2.00;;;15.30;99.90;;;;;;5077409;28;20049;-60
2022/07/29 05:32:19;;;;;;;4.75;1.90;;;15.30;99.90;;;;;;5077418;28;20047;-60
2022/07/29 05:34:45;;;;;;;5.25;2.08;;;15.40;99.90;;;;;;5077175;28;20163;-61
2022/07/29 05:37:13;;;;;;;3.55;2.00;;;15.40;99.90;;;;;;5074866;28;20136;-61
2022/07/29 05:39:39;;;;;;;3.88;2.00;;;15.50;99.90;;;;;;5073270;28;20044;-62
2022/07/29 05:42:11;;;;;;;6.45;1.98;;;15.60;99.90;;;;;;5056282;28;20044;-62
2022/07/29 05:44:38;;;;;;;4.22;2.00;;;15.70;99.90;;;;;;5056671;28;20049;-61
2022/07/29 05:47:04;;;;;;;6.03;2.10;;;15.70;99.90;;;;;;5074114;28;20048;-60
2022/07/29 05:49:29;;;;;;;5.28;1.95;;;15.80;99.90;;;;;;5074379;28;20094;-60
2022/07/29 05:51:55;;;;;;;3.53;1.88;;;15.90;99.90;;;;;;5072640;28;20055;-61
2022/07/29 05:54:21;;;;;;;3.97;1.63;;;15.90;99.90;;;;;;5074352;28;20055;-60
2022/07/29 05:56:46;;;;;;;4.75;2.05;;;16.00;99.90;;;;;;5074027;28;20466;-61
2022/07/29 05:59:12;;;;;;;3.45;1.80;;;16.00;99.90;;;;;;5074131;28;20393;-61
2022/07/29 06:01:39;;;;;;;5.80;2.20;;;16.00;99.90;;;;;;5056178;28;20394;-59
2022/07/29 06:04:06;;;;;;;3.88;1.95;;;16.00;99.90;;;;;;5072345;28;20055;-60
2022/07/29 06:06:33;;;;;;;6.60;1.83;;;16.00;99.90;;;;;;5056170;28;20135;-64
2022/07/29 06:08:59;;;;;;;5.13;1.95;;;16.00;99.90;;;;;;5073462;28;20053;-60
2022/07/29 06:11:25;;;;;;;3.50;1.77;;;16.10;99.90;;;;;;5072895;28;20055;-61
2022/07/29 06:13:51;;;;;;;4.47;1.77;;;16.20;99.90;;;;;;5073647;28;20036;-61
2022/07/29 06:16:16;;;;;;;6.63;2.08;;;16.20;99.90;;;;;;5073578;28;20045;-61
2022/07/29 06:18:42;;;;;;;3.60;1.90;;;16.30;99.90;;;;;;5073665;28;20051;-61
2022/07/29 06:21:09;;;;;;;4.95;1.70;;;16.30;99.90;;;;;;5055266;28;20043;-63
2022/07/29 06:23:38;;;;;;;5.97;2.03;;;16.40;99.90;;;;;;5072469;28;20063;-60
2022/07/29 06:26:05;;;;;;;5.72;2.00;;;16.40;99.90;;;;;;5072863;28;20505;-60
2022/07/29 06:28:32;;;;;;;4.15;1.73;;;16.50;99.90;;;;;;5073390;28;20040;-61
2022/07/29 06:30:58;;;;;;;4.50;2.00;;;16.60;99.90;;;;;;5071884;28;20049;-60
2022/07/29 06:33:24;;;;;;;7.22;1.75;;;16.60;99.90;;;;;;5072320;28;20113;-61
2022/07/29 06:35:50;;;;;;;5.13;1.83;;;16.70;99.90;;;;;;5073242;28;20041;-65
2022/07/29 06:38:19;;;;;;;3.75;2.05;;;16.90;99.90;;;;;;5072114;28;20049;-60
2022/07/29 06:41:05;;;;;;;7.25;2.08;;;17.10;99.90;;;;;;5073015;28;20040;-61
2022/07/29 06:43:41;;;;;;;2.90;1.70;;;17.20;99.90;;;;;;5071575;28;20486;-60
2022/07/29 06:46:14;;;;;;;8.40;2.35;;;17.30;99.90;;;;;;5071682;28;20128;-60
2022/07/29 06:48:41;;;;;;;7.03;2.00;;;17.50;99.90;;;;;;5072649;28;20049;-60
2022/07/29 06:51:09;;;;;;;7.28;2.05;;;17.60;99.90;;;;;;5054859;28;20106;-60
2022/07/29 06:53:35;;;;;;;6.20;2.33;;;17.70;99.90;;;;;;5072860;28;20040;-60
2022/07/29 06:56:02;;;;;;;5.90;2.17;;;17.90;99.90;;;;;;5072597;28;20063;-60
2022/07/29 06:58:29;;;;;;;10.55;3.08;;;18.00;99.90;;;;;;5071732;28;20546;-62
2022/07/29 07:00:56;;;;;;;6.20;1.90;;;17.90;99.90;;;;;;5071452;28;20052;-64
2022/07/29 07:03:22;;;;;;;5.47;2.03;;;18.00;99.90;;;;;;5055293;28;20053;-61
2022/07/29 07:05:48;;;;;;;7.30;2.33;;;18.10;99.90;;;;;;5055319;28;20044;-60
2022/07/29 07:08:15;;;;;;;4.90;1.80;;;18.10;99.90;;;;;;5071483;28;20060;-60
2022/07/29 07:10:42;;;;;;;4.20;2.08;;;18.20;99.90;;;;;;5073083;28;20200;-60
2022/07/29 07:13:08;;;;;;;7.13;2.05;;;18.30;99.90;;;;;;5072309;28;20053;-61
2022/07/29 07:15:35;;;;;;;4.20;2.00;;;18.30;99.90;;;;;;5072594;28;20044;-60
2022/07/29 07:18:01;;;;;;;4.65;1.98;;;18.30;99.90;;;;;;5072142;28;20045;-61
2022/07/29 07:20:26;;;;;;;6.00;2.00;;;18.30;99.90;;;;;;5072331;28;20405;-60
2022/07/29 07:22:52;;;;;;;6.05;2.25;;;18.30;99.90;;;;;;5072586;28;20158;-60
2022/07/29 07:25:18;;;;;;;6.22;2.17;;;18.30;99.90;;;;;;5072068;28;20048;-61
2022/07/29 07:27:44;;;;;;;8.13;2.13;;;18.30;99.90;;;;;;5072534;28;20033;-61
2022/07/29 07:30:10;;;;;;;6.82;2.05;;;18.30;99.90;;;;;;5072155;28;20052;-60
2022/07/29 07:32:36;;;;;;;3.65;1.88;;;18.20;99.90;;;;;;5072161;28;20048;-60
2022/07/29 07:35:04;;;;;;;6.57;2.63;;;18.20;99.90;;;;;;5070805;28;20150;-59
2022/07/29 07:37:30;;;;;;;5.20;2.08;;;18.20;99.90;;;;;;5070988;28;20483;-60
2022/07/29 07:39:56;;;;;;;4.32;1.90;;;18.30;99.90;;;;;;5071397;28;20044;-60
2022/07/29 07:42:21;;;;;;;7.10;2.05;;;18.30;99.90;;;;;;5071953;28;20051;-60
2022/07/29 07:44:48;;;;;;;4.60;2.20;;;18.30;99.90;;;;;;5072105;28;20078;-63
2022/07/29 07:47:19;;;;;;;3.58;1.80;;;18.40;99.90;;;;;;5054037;28;20048;-61
2022/07/29 07:49:48;;;;;;;4.50;2.00;;;18.40;99.90;;;;;;5072099;28;20468;-60
2022/07/29 07:52:15;;;;;;;4.75;1.98;;;18.50;99.90;;;;;;5071698;28;20048;-63
2022/07/29 07:54:42;;;;;;;5.43;2.10;;;18.60;99.90;;;;;;5071580;28;20410;-61
2022/07/29 07:57:08;;;;;;;5.68;1.88;;;18.70;99.90;;;;;;5071634;28;20448;-60
2022/07/29 07:59:34;;;;;;;6.40;2.15;;;18.80;99.90;;;;;;5070522;28;20385;-61
2022/07/29 08:02:00;;;;;;;6.05;2.10;;;18.90;99.90;;;;;;5053781;28;20058;-64
2022/07/29 08:04:26;;;;;;;6.80;2.05;;;19.10;99.90;;;;;;5070959;28;20064;-61
2022/07/29 08:06:54;;;;;;;7.13;2.40;;;19.20;99.90;;;;;;5070434;28;20386;-60
2022/07/29 08:09:24;;;;;;;5.25;2.35;;;19.10;99.90;;;;;;5070058;28;20092;-60
2022/07/29 08:11:50;;;;;;;5.40;2.10;;;19.00;99.90;;;;;;5070946;28;20057;-61
2022/07/29 08:14:16;;;;;;;4.88;2.50;;;19.10;99.90;;;;;;5070579;28;20111;-62
2022/07/29 08:16:42;;;;;;;7.20;2.22;;;19.00;99.90;;;;;;5070678;28;20083;-61
2022/07/29 08:19:08;;;;;;;6.60;2.20;;;19.00;99.90;;;;;;5070117;28;20040;-60
2022/07/29 08:21:34;;;;;;;5.03;1.98;;;19.00;99.90;;;;;;5070644;28;20056;-61
2022/07/29 08:26:44;;;;;;;6.75;2.30;;;19.10;99.90;;;;;;5071591;28;20049;-60
2022/07/29 08:29:11;;;;;;;5.78;2.03;;;19.10;99.90;;;;;;5036855;28;20040;-60
2022/07/29 08:31:38;;;;;;;8.05;2.35;;;19.10;99.90;;;;;;5087466;28;20091;-61
2022/07/29 08:34:04;;;;;;;5.80;2.20;;;19.10;99.90;;;;;;5071615;28;20052;-61
2022/07/29 08:36:31;;;;;;;5.32;2.03;;;19.20;99.90;;;;;;5071531;28;20048;-61
2022/07/29 08:38:57;;;;;;;4.07;2.08;;;19.30;99.90;;;;;;5070398;28;20037;-61
2022/07/29 08:41:23;;;;;;;5.43;2.00;;;19.40;99.90;;;;;;5051566;28;20071;-60
2022/07/29 08:43:49;;;;;;;4.63;2.20;;;19.60;99.90;;;;;;5068499;28;20470;-60
2022/07/29 08:46:16;;;;;;;4.40;1.92;;;19.80;99.90;;;;;;5071056;28;20072;-61
2022/07/29 08:48:43;;;;;;;8.57;2.05;;;19.80;99.90;;;;;;5069142;28;20056;-61
2022/07/29 08:51:14;;;;;;;6.63;2.50;;;19.80;99.90;;;;;;5068428;28;20045;-60
2022/07/29 08:53:42;;;;;;;5.72;2.10;;;19.70;99.90;;;;;;5070207;28;20040;-60
2022/07/29 08:56:11;;;;;;;7.22;2.13;;;19.60;99.90;;;;;;5069816;28;20041;-65
2022/07/29 08:58:37;;;;;;;6.15;2.50;;;19.60;99.90;;;;;;5051506;28;20051;-61
2022/07/29 09:01:03;;;;;;;4.70;2.28;;;19.60;99.80;;;;;;5069993;28;20052;-62
2022/07/29 09:03:35;;;;;;;4.53;1.80;;;19.60;99.50;;;;;;5069651;28;20048;-59
2022/07/29 09:06:02;;;;;;;5.95;2.20;;;19.60;99.80;;;;;;5071296;28;20567;-60
2022/07/29 09:08:28;;;;;;;4.72;2.10;;;19.60;99.90;;;;;;5069942;28;20301;-62
2022/07/29 09:10:58;;;;;;;5.28;2.00;;;19.60;99.90;;;;;;5071353;28;20102;-60
2022/07/29 09:13:24;;;;;;;4.97;2.28;;;19.50;99.90;;;;;;5038347;28;20092;-66
2022/07/29 09:15:50;;;;;;;5.25;2.20;;;19.40;99.90;;;;;;5073637;28;20049;-61
2022/07/29 09:18:43;;;;;;;4.22;2.20;;;19.50;99.90;;;;;;5071769;28;20055;-60
2022/07/29 09:24:14;;;;;;;4.32;2.35;;;19.50;99.90;;;;;;5073661;28;20049;-61
2022/07/29 09:26:43;;;;;;;6.43;2.55;;;19.60;99.90;;;;;;5074495;28;20043;-62
2022/07/29 09:29:14;;;;;;;6.20;2.35;;;19.60;99.90;;;;;;5074659;28;20067;-60
2022/07/29 09:31:42;;;;;;;5.57;2.30;;;19.60;99.90;;;;;;5072997;28;20045;-61
2022/07/29 09:34:09;;;;;;;4.53;2.13;;;19.60;99.80;;;;;;5074717;28;20040;-60
2022/07/29 09:36:46;;;;;;;7.03;2.17;;;19.60;99.90;;;;;;5071805;28;20056;-61
2022/07/29 09:39:14;;;;;;;5.45;2.15;;;19.60;99.80;;;;;;5070621;28;20056;-63
2022/07/29 09:41:55;;;;;;;6.20;2.60;;;19.70;99.90;;;;;;5066134;28;20119;-62
2022/07/29 09:44:22;;;;;;;7.10;2.40;;;19.70;99.90;;;;;;5073935;28;20394;-62
2022/07/29 09:46:58;;;;;;;3.88;2.35;;;19.70;99.60;;;;;;5070070;28;20089;-64
2022/07/29 09:49:24;;;;;;;5.13;2.20;;;19.60;99.80;;;;;;5069100;28;20055;-64
2022/07/29 09:52:00;;;;;;;4.90;2.13;;;19.70;99.90;;;;;;5073601;28;20084;-61
2022/07/29 09:54:27;;;;;;;6.05;2.30;;;19.70;99.90;;;;;;5070023;28;20049;-61
2022/07/29 09:56:54;;;;;;;4.38;2.60;;;19.60;99.90;;;;;;5068626;28;20064;-61
2022/07/29 09:59:22;;;;;;;4.75;2.15;;;19.60;99.90;;;;;;5071203;28;20457;-61
2022/07/29 10:01:49;;;;;;;5.63;2.20;;;19.60;99.90;;;;;;5070519;28;20525;-62
2022/07/29 10:04:16;;;;;;;6.80;2.58;;;19.70;99.90;;;;;;5069853;28;20059;-62
2022/07/29 10:07:02;;;;;;;8.57;2.50;;;19.70;99.90;;;;;;5069973;28;20170;-60
2022/07/29 10:09:28;;;;;;;6.00;2.60;;;19.80;99.90;;;;;;5072952;28;20545;-62
2022/07/29 10:12:13;;;;;;;6.70;2.35;;;19.80;99.90;;;;;;5073874;28;20052;-61
2022/07/29 10:14:39;;;;;;;7.72;2.38;;;19.80;99.90;;;;;;5073528;28;20041;-61
2022/07/29 10:17:07;;;;;;;7.38;2.75;;;19.80;99.90;;;;;;5072723;28;20051;-61
2022/07/29 10:19:34;;;;;;;5.18;2.05;;;19.90;99.90;;;;;;5073463;28;20105;-60
2022/07/29 10:22:03;;;;;;;7.90;2.63;;;19.90;99.90;;;;;;5071231;28;20456;-61
2022/07/29 10:24:31;;;;;;;4.78;2.40;;;20.00;99.90;;;;;;5072212;28;20121;-61
2022/07/29 10:26:58;;;;;;;7.32;2.53;;;19.90;99.90;;;;;;5071113;28;20049;-60
2022/07/29 10:29:28;;;;;;;5.75;2.67;;;19.80;99.90;;;;;;5073403;28;20040;-61
2022/07/29 10:32:27;;;;;;;6.38;2.75;;;19.90;99.90;;;;;;5074006;28;20087;-61
2022/07/29 10:35:20;;;;;;;5.78;2.42;;;19.90;99.90;;;;;;5056155;28;20067;-62
2022/07/29 10:38:07;;;;;;;6.15;2.30;;;19.90;99.90;;;;;;5055275;28;20048;-61
2022/07/29 10:43:45;;;;;;;7.72;2.70;;;20.00;99.90;;;;;;5070440;28;20143;-61
2022/07/29 10:46:13;;;;;;;6.40;2.75;;;20.10;99.90;;;;;;5072954;28;20049;-60
2022/07/29 10:49:17;;;;;;;8.00;3.20;;;20.10;99.90;;;;;;5071725;28;20498;-62
2022/07/29 10:52:01;;;;;;;9.15;2.85;;;20.20;99.90;;;;;;5072865;28;20102;-62
2022/07/29 10:54:39;;;;;;;5.95;2.80;;;20.30;99.90;;;;;;5055145;28;20048;-62
2022/07/29 10:57:29;;;;;;;7.55;2.75;;;20.30;99.90;;;;;;5072383;28;20051;-62
2022/07/29 11:00:04;;;;;;;7.07;2.63;;;20.20;99.90;;;;;;5056087;28;20132;-65
2022/07/29 11:02:36;;;;;;;7.43;2.72;;;20.30;99.90;;;;;;5055214;28;20078;-62
2022/07/29 11:05:08;;;;;;;6.28;2.95;;;20.40;99.90;;;;;;5069463;28;20049;-61
2022/07/29 11:07:34;;;;;;;5.53;2.85;;;20.40;99.90;;;;;;5070999;28;20083;-61
2022/07/29 11:10:12;;;;;;;6.35;2.60;;;20.50;99.90;;;;;;5071251;28;20095;-61
2022/07/29 11:12:38;;;;;;;7.38;3.38;;;20.50;99.90;;;;;;5068216;28;20049;-65
2022/07/29 11:15:08;;;;;;;5.43;3.03;;;20.40;99.90;;;;;;5070689;28;20048;-60
2022/07/29 11:17:52;;;;;;;7.50;2.97;;;20.40;99.90;;;;;;5065320;28;20207;-61
2022/07/29 11:20:40;;;;;;;5.10;2.65;;;20.40;99.90;;;;;;5067605;28;20045;-62
2022/07/29 11:23:31;;;;;;;7.47;4.03;;;20.40;99.90;;;;;;5072215;28;20287;-63
2022/07/29 11:26:25;;;;;;;8.73;3.50;;;20.40;99.90;;;;;;5088180;28;20079;-62
2022/07/29 11:29:03;;;;;;;8.43;3.35;;;20.40;99.90;;;;;;5072528;28;20036;-61
2022/07/29 11:31:45;;;;;;;7.45;3.17;;;20.40;99.90;;;;;;5071148;28;20044;-61
2022/07/29 11:34:21;;;;;;;8.23;3.00;;;20.40;99.90;;;;;;5066363;28;20050;-61
2022/07/29 11:37:09;;;;;;;6.43;2.90;;;20.40;99.90;;;;;;5069655;28;20090;-63
2022/07/29 11:39:37;;;;;;;6.13;3.00;;;20.50;99.90;;;;;;5071578;28;20040;-59
2022/07/29 11:42:23;;;;;;;7.75;3.00;;;20.60;99.90;;;;;;5069442;28;20067;-61
2022/07/29 11:44:56;;;;;;;6.00;2.90;;;20.70;99.90;;;;;;5070791;28;20103;-61
2022/07/29 11:47:23;;;;;;;9.32;3.50;;;20.80;99.90;;;;;;5072293;28;20063;-62
2022/07/29 11:49:51;;;;;;;6.00;3.05;;;20.90;99.90;;;;;;5068794;28;20490;-61
2022/07/29 11:52:17;;;;;;;5.68;2.92;;;21.00;99.90;;;;;;5071928;28;20095;-61
2022/07/29 11:54:43;;;;;;;8.32;2.78;;;21.20;99.90;;;;;;5072039;28;20392;-60
2022/07/29 11:57:09;;;;;;;6.05;2.80;;;21.30;99.90;;;;;;5070239;28;20128;-61
2022/07/29 11:59:44;;;;;;;5.40;2.92;;;21.50;99.90;;;;;;5071598;28;20044;-60
2022/07/29 12:02:09;;;;;;;8.07;3.20;;;21.70;99.90;;;;;;5071610;28;20043;-60
2022/07/29 12:04:52;;;;;;;7.25;2.80;;;21.80;99.90;;;;;;5054035;28;20040;-62
2022/07/29 12:07:18;;;;;;;4.15;2.42;;;21.90;99.90;;;;;;5071936;28;20051;-61
2022/07/29 12:09:53;;;;;;;4.85;2.67;;;22.00;99.90;;;;;;5070245;28;20091;-60
2022/07/29 12:12:20;;;;;;;9.20;2.85;;;22.10;99.30;;;;;;5068027;28;20052;-65
2022/07/29 12:14:46;;;;;;;8.07;3.28;;;22.10;99.70;;;;;;5069396;28;20040;-59
2022/07/29 12:17:32;;;;;;;10.25;2.70;;;22.20;99.60;;;;;;5070699;28;20044;-61
2022/07/29 12:20:03;;;;;;;6.47;2.30;;;22.20;99.40;;;;;;5053370;28;20056;-60
2022/07/29 12:22:36;;;;;;;6.03;2.60;;;22.30;99.00;;;;;;5071756;28;20118;-61
2022/07/29 12:25:11;;;;;;;6.78;2.70;;;22.30;99.10;;;;;;5070730;28;20080;-60
2022/07/29 12:27:38;;;;;;;6.72;2.95;;;22.40;99.20;;;;;;5053861;28;20363;-59
2022/07/29 12:30:06;;;;;;;6.80;2.80;;;22.50;98.80;;;;;;5070809;28;20106;-61
2022/07/29 12:32:41;;;;;;;5.32;1.98;;;22.60;98.90;;;;;;5070465;28;20490;-62
2022/07/29 12:35:25;;;;;;;4.78;2.25;;;22.70;98.00;;;;;;5071983;28;20104;-59
2022/07/29 12:37:52;;;;;;;;;;;22.70;97.40;;;;;;5070558;28;20054;-61
2022/07/29 12:40:20;;;;;;;6.75;2.45;;;22.80;97.60;;;;;;5070461;28;19920;-62
2022/07/29 12:43:13;;;;;;;7.68;2.60;;;22.80;97.40;;;;;;5053438;28;20052;-61
2022/07/29 12:45:40;;;;;;;7.05;2.63;;;22.90;97.20;;;;;;5069937;28;20043;-60
2022/07/29 12:48:09;;;;;;;4.95;2.20;;;23.00;96.90;;;;;;5057291;28;20053;-61
2022/07/29 12:50:50;;;;;;;6.07;1.95;;;23.10;96.60;;;;;;5075310;28;20070;-61
2022/07/29 12:53:16;;;;;;;7.50;2.30;;;23.10;96.90;;;;;;5075186;28;20456;-61
2022/07/29 12:55:48;;;;;;;5.28;2.17;;;23.10;96.80;;;;;;5056736;28;20078;-61
2022/07/29 12:58:38;;;;;;;7.00;2.20;;;23.10;96.90;;;;;;5074791;28;20501;-61
2022/07/29 13:01:13;;;;;;;7.63;2.30;;;23.20;96.60;;;;;;5075468;28;20382;-60
2022/07/29 13:04:01;;;;;;;8.98;2.30;;;23.30;95.80;;;;;;5074143;28;20478;-59
2022/07/29 13:06:38;;;;;;;5.53;2.20;;;23.30;95.90;;;;;;5074280;28;20142;-61
2022/07/29 13:09:15;;;;;;;7.32;2.50;;;23.40;96.00;;;;;;5075089;28;20064;-62